MOL Presence — 9V8990 — position and weather

sailwx.info

Track history (hours):
 
Tides and Currents Weather Stations Pressure Air Temp Water Temp Dewpoint Dewpoint Depression Visibility Wind Speed Wind Dir Waves Ship Positions

MOL Presence

Last reported at 2018-Jul-20 10:30 UTC. Time now 2018-Jul-20 10:53 UTC.
Position N 51°39' E 001°24'.

Length 293 m; draft 9.6 m.

Type: Cargo ship. MMSI: 564803000.

Date/timePositionNaut miles runAvg speedWind from/ knotsBaromVisibWave heightAir tempDewpointWater temp
2018-Jul-20 10:30N 51°39' E 001°24'714.1
2018-Jul-20 10:00N 51°45' E 001°30'713.3
2018-Jul-20 09:30N 51°51' E 001°35'4 8.7
2018-Jul-20 09:00N 51°52' E 001°41'3 6.5
2018-Jul-20 08:30N 51°55' E 001°41'0 0.8
2018-Jul-20 08:00N 51°55' E 001°40'1 1.3
2018-Jul-20 07:30N 51°54' E 001°40'1 1.7
2018-Jul-20 07:00N 51°54' E 001°41'4 8.5
2018-Jul-20 06:30N 51°51' E 001°47'4 8.5
2018-Jul-20 06:00N 51°50' E 001°53'5 9.8
2018-Jul-20 05:30N 51°52' E 002°00'713.9
2018-Jul-20 05:01N 51°55' E 002°11'714.3
2018-Jul-20 04:31N 51°57' E 002°22'714.7
2018-Jul-20 04:01N 51°60' E 002°33'714.6
2018-Jul-20 03:31N 52°02' E 002°44'714.7
2018-Jul-20 03:01N 52°02' E 002°56'714.8
2018-Jul-20 02:31N 52°03' E 003°08'714.8
2018-Jul-20 02:01N 52°03' E 003°20'714.8
2018-Jul-20 01:31N 52°03' E 003°32'815.4
2018-Jul-20 01:00N 52°03' E 003°45'611.6
2018-Jul-20 00:30N 52°02' E 003°54'4 8.5
2018-Jul-20 00:00N 52°00' E 004°00'4 7.7
2018-Jul-19 23:30N 51°58' E 004°05'1 2.1
2018-Jul-19 23:00N 51°58' E 004°03'0 0.0
2018-Jul-19 22:30N 51°58' E 004°03'0 0.0
2018-Jul-19 22:00N 51°58' E 004°03'0 0.0
2018-Jul-19 21:30N 51°58' E 004°03'0 0.0
2018-Jul-19 21:00N 51°58' E 004°03'0 0.0
2018-Jul-19 20:30N 51°58' E 004°03'0 0.0
2018-Jul-19 20:00N 51°58' E 004°03'0 0.0
2018-Jul-19 19:30N 51°58' E 004°03'0 0.0
2018-Jul-19 19:00N 51°58' E 004°03'0 0.0
2018-Jul-19 18:30N 51°58' E 004°03'0 0.0
2018-Jul-19 18:00N 51°58' E 004°03'0 0.0
2018-Jul-19 17:30N 51°58' E 004°03'0 0.0
2018-Jul-19 17:00N 51°58' E 004°03'0 0.0
2018-Jul-19 16:30N 51°58' E 004°03'0 0.0
2018-Jul-19 16:00N 51°58' E 004°03'0 0.0
2018-Jul-19 15:30N 51°58' E 004°03'0 0.0
2018-Jul-19 15:00N 51°58' E 004°03'0 0.0
2018-Jul-19 14:00N 51°58' E 004°03'0 0.0
2018-Jul-19 13:30N 51°58' E 004°03'0 0.0
2018-Jul-19 13:00N 51°58' E 004°03'0 0.0
2018-Jul-19 12:30N 51°58' E 004°03'0 0.0
2018-Jul-19 12:00N 51°58' E 004°03'0 0.0
2018-Jul-19 11:30N 51°58' E 004°03'0 0.0
2018-Jul-19 11:00N 51°58' E 004°03'0 0.0
2018-Jul-19 10:30N 51°58' E 004°03'0 0.0
2018-Jul-19 10:00N 51°58' E 004°03'0 0.0
2018-Jul-19 09:30N 51°58' E 004°03'0 0.0
2018-Jul-19 09:00N 51°58' E 004°03'0 0.0
2018-Jul-19 08:30N 51°58' E 004°03'0 0.0
2018-Jul-19 08:00N 51°58' E 004°03'0 0.0
2018-Jul-19 07:30N 51°58' E 004°03'0 0.0
2018-Jul-19 07:00N 51°58' E 004°03'0 0.0
2018-Jul-19 06:30N 51°58' E 004°03'0 0.0
2018-Jul-19 06:00N 51°58' E 004°03'0 0.0
2018-Jul-19 05:30N 51°58' E 004°03'1 1.5
2018-Jul-19 05:00N 51°58' E 004°04'2 4.1
2018-Jul-19 04:30N 51°59' E 004°02'612.0
2018-Jul-19 04:00N 52°00' E 003°53'5 9.6
2018-Jul-19 03:30N 51°60' E 003°45'4 8.8
2018-Jul-19 03:00N 51°58' E 003°39'612.5
2018-Jul-19 02:30N 51°56' E 003°29'816.6
2018-Jul-19 02:00N 51°54' E 003°16'815.4
2018-Jul-19 01:30N 51°53' E 003°04'2 3.8
2018-Jul-19 01:00N 51°54' E 003°01'1 1.8
2018-Jul-19 00:30N 51°54' E 003°02'1 1.8
2018-Jul-19 00:00N 51°55' E 003°03'1 1.6
2018-Jul-18 23:30N 51°56' E 003°03'1 1.1
2018-Jul-18 23:00N 51°56' E 003°04'0 0.4
2018-Jul-18 22:30N 51°56' E 003°04'0 0.3
2018-Jul-18 22:00N 51°56' E 003°04'6 5.9
2018-Jul-18 21:00N 51°54' E 002°55'917.2
2018-Jul-18 20:30N 51°50' E 002°42'1122.2
2018-Jul-18 20:00N 51°43' E 002°29'1121.9
2018-Jul-18 19:30N 51°33' E 002°19'1122.6
2018-Jul-18 19:00N 51°23' E 002°11'1122.7
2018-Jul-18 18:30N 51°14' E 002°02'1223.1
2018-Jul-18 18:01N 51°07' E 001°47'1223.9
2018-Jul-18 17:31N 50°59' E 001°33'1223.2
2018-Jul-18 17:01N 50°49' E 001°24'1122.2
2018-Jul-18 16:31N 50°39' E 001°16'1122.6
2018-Jul-18 16:01N 50°32' E 001°03'1121.8
2018-Jul-18 15:31N 50°27' E 000°47'1121.9
2018-Jul-18 15:01N 50°24' E 000°30'1122.4
2018-Jul-18 14:30N 50°22' E 000°13'2323.2
2018-Jul-18 13:30N 50°15' W 000°22'1223.8
2018-Jul-18 13:01N 50°10' W 000°38'1224.1
2018-Jul-18 12:31N 50°03' W 000°54'1224.3
2018-Jul-18 12:01N 49°56' W 001°09'1224.7
2018-Jul-18 11:30N 49°50' W 001°26'1111.5
2018-Jul-18 10:31N 49°46' W 001°42'3 6.0
2018-Jul-18 10:00N 49°46' W 001°47'1119.9
2018-Jul-18 09:27N 49°49' W 002°03'1121.6
2018-Jul-18 08:55N 49°53' W 002°20'1022.1
2018-Jul-18 08:28N 49°50' W 002°35'1022.0
2018-Jul-18 08:00N 49°48' W 002°51'1121.9
2018-Jul-18 07:30N 49°45' W 003°07'1221.6
2018-Jul-18 06:58N 49°40' W 003°23'1021.6
2018-Jul-18 06:30N 49°35' W 003°36'4321.5
2018-Jul-18 04:31N 49°13' W 004°32'121.4
2018-Jul-18 04:29N 49°12' W 004°33'1021.1
2018-Jul-18 04:00N 49°07' W 004°46'1120.8
2018-Jul-18 03:28N 49°01' W 005°01'920.5
2018-Jul-18 03:01N 48°56' W 005°13'1020.3
2018-Jul-18 02:30N 48°51' W 005°26'1420.1
2018-Jul-18 01:48N 48°41' W 005°41'2820.4
2018-Jul-18 00:25N 48°15' W 005°59'1920.1
2018-Jul-17 23:27N 47°58' W 006°13'1120.7
2018-Jul-17 22:54N 47°48' W 006°21'820.5
2018-Jul-17 22:30N 47°41' W 006°27'1020.4
2018-Jul-17 22:01N 47°32' W 006°34'1121.6
2018-Jul-17 21:30N 47°22' W 006°42'50020.8
2018-Jul-16 21:30N 39°21' W 009°52'1021.1
2018-Jul-16 21:01N 39°11' W 009°52'1121.1
2018-Jul-16 20:31N 39°00' W 009°51'1020.8
2018-Jul-16 20:01N 38°50' W 009°50'1121.3
2018-Jul-16 19:30N 38°39' W 009°50'1121.8
2018-Jul-16 19:01N 38°29' W 009°47'1121.6
2018-Jul-16 18:31N 38°18' W 009°44'1121.4
2018-Jul-16 18:01N 38°08' W 009°40'1121.4
2018-Jul-16 17:31N 37°58' W 009°36'1121.1
2018-Jul-16 17:00N 37°47' W 009°33'1121.4
2018-Jul-16 16:30N 37°37' W 009°30'1121.2
2018-Jul-16 16:01N 37°27' W 009°27'1121.0
2018-Jul-16 15:31N 37°16' W 009°25'1121.6
2018-Jul-16 15:01N 37°06' W 009°23'2520.3
2018-Jul-16 13:48N 36°45' W 009°07'1121.6
2018-Jul-16 13:17N 36°42' W 008°54'621.4
2018-Jul-16 13:00N 36°40' W 008°46'1121.3
2018-Jul-16 12:30N 36°37' W 008°34'13821.5
2018-Jul-16 06:05N 35°56' W 005°50'219.3
2018-Jul-16 06:00N 35°56' W 005°48'915.5
2018-Jul-16 05:24N 35°57' W 005°37'614.4
2018-Jul-16 05:00N 35°59' W 005°30'815.2
2018-Jul-16 04:30N 36°04' W 005°23'510.5
2018-Jul-16 04:00N 36°09' W 005°25'1 1.8
2018-Jul-16 03:30N 36°09' W 005°26'0 0.0
2018-Jul-16 03:00N 36°09' W 005°26'0 0.0
2018-Jul-16 02:30N 36°09' W 005°26'0 0.0
2018-Jul-16 02:00N 36°09' W 005°26'0 0.0
2018-Jul-16 01:30N 36°09' W 005°26'0 0.0
2018-Jul-16 01:00N 36°09' W 005°26'0 0.0
2018-Jul-16 00:30N 36°09' W 005°26'0 0.0
2018-Jul-16 00:00N 36°09' W 005°26'0 0.0
2018-Jul-15 23:30N 36°09' W 005°26'0 0.0
2018-Jul-15 23:00N 36°09' W 005°26'0 0.0
2018-Jul-15 22:30N 36°09' W 005°26'0 0.0
2018-Jul-15 22:00N 36°09' W 005°26'0 0.0
2018-Jul-15 21:30N 36°09' W 005°26'0 0.0
2018-Jul-15 21:00N 36°09' W 005°26'0 0.0
2018-Jul-15 20:30N 36°09' W 005°26'0 0.0
2018-Jul-15 20:00N 36°09' W 005°26'0 0.0
2018-Jul-15 19:30N 36°09' W 005°26'0 0.0
2018-Jul-15 19:00N 36°09' W 005°26'0 0.0
2018-Jul-15 18:30N 36°09' W 005°26'0 0.0
2018-Jul-15 18:00N 36°09' W 005°26'0 0.0
2018-Jul-15 17:30N 36°09' W 005°26'0 0.0
2018-Jul-15 17:00N 36°09' W 005°26'0 0.0
2018-Jul-15 16:30N 36°09' W 005°26'0 0.0
2018-Jul-15 15:57N 36°09' W 005°26'0 0.0
2018-Jul-15 15:30N 36°09' W 005°26'0 0.0
2018-Jul-15 15:00N 36°09' W 005°26'0 0.0
2018-Jul-15 14:24N 36°09' W 005°26'0 0.0
2018-Jul-15 14:00N 36°09' W 005°26'0 0.0
2018-Jul-15 13:30N 36°09' W 005°26'0 0.0
2018-Jul-15 13:00N 36°09' W 005°26'0 0.0
2018-Jul-15 12:30N 36°09' W 005°26'0 0.0
2018-Jul-15 12:00N 36°09' W 005°26'0 0.0
2018-Jul-15 11:30N 36°09' W 005°26'0 0.0
2018-Jul-15 11:00N 36°09' W 005°26'0 0.0
2018-Jul-15 10:30N 36°09' W 005°26'0 0.0
2018-Jul-15 10:00N 36°09' W 005°26'0 0.0
2018-Jul-15 09:30N 36°09' W 005°26'0 0.1
2018-Jul-15 09:00N 36°09' W 005°26'0 0.1
2018-Jul-15 08:30N 36°09' W 005°26'1 2.2
2018-Jul-15 08:00N 36°09' W 005°25'2 4.9
2018-Jul-15 07:30N 36°07' W 005°23'3 6.6
2018-Jul-15 07:00N 36°05' W 005°20'2 4.2
2018-Jul-15 06:30N 36°03' W 005°20'5 9.2
2018-Jul-15 06:00N 35°59' W 005°24'612.3
2018-Jul-15 05:30N 35°57' W 005°31'5 9.3
2018-Jul-15 05:00N 35°55' W 005°36'714.4
2018-Jul-15 04:30N 35°54' W 005°45'815.0
2018-Jul-15 03:58N 35°53' W 005°55'52117.9
2018-Jul-13 22:49N 29°15' W 012°34'721.6
2018-Jul-13 22:30N 29°09' W 012°38'1321.5
2018-Jul-13 21:54N 28°58' W 012°46'1121.3
2018-Jul-13 21:21N 28°49' W 012°53'921.5
2018-Jul-13 20:55N 28°41' W 012°59'921.6
2018-Jul-13 20:29N 28°33' W 013°04'1121.5
2018-Jul-13 20:00N 28°24' W 013°11'1121.9
2018-Jul-13 19:30N 28°15' W 013°17'1121.2
2018-Jul-13 19:00N 28°06' W 013°25'1120.8
2018-Jul-13 18:29N 27°58' W 013°32'1020.8
2018-Jul-13 18:00N 27°50' W 013°39'1121.1
2018-Jul-13 17:28N 27°41' W 013°47'2421.6
2018-Jul-13 16:23N 27°22' W 014°03'  
Track history (hours):
 
Tides and Currents Weather Stations Pressure Air Temp Water Temp Dewpoint Dewpoint Depression Visibility Wind Speed Wind Dir Waves Ship Positions

MOL Presence

Last reported at 2018-Jul-20 10:30 UTC. Time now 2018-Jul-20 10:53 UTC.
Position N 51°39' E 001°24'.

Length 293 m; draft 9.6 m.

Type: Cargo ship. MMSI: 564803000.

Date/timePositionNaut miles runAvg speedWind from/ knotsBaromVisibWave heightAir tempDewpointWater temp
2018-Jul-20 10:30N 51°39' E 001°24'714.1
2018-Jul-20 10:00N 51°45' E 001°30'713.3
2018-Jul-20 09:30N 51°51' E 001°35'4 8.7
2018-Jul-20 09:00N 51°52' E 001°41'3 6.5
2018-Jul-20 08:30N 51°55' E 001°41'0 0.8
2018-Jul-20 08:00N 51°55' E 001°40'1 1.3
2018-Jul-20 07:30N 51°54' E 001°40'1 1.7
2018-Jul-20 07:00N 51°54' E 001°41'4 8.5
2018-Jul-20 06:30N 51°51' E 001°47'4 8.5
2018-Jul-20 06:00N 51°50' E 001°53'5 9.8
2018-Jul-20 05:30N 51°52' E 002°00'713.9
2018-Jul-20 05:01N 51°55' E 002°11'714.3
2018-Jul-20 04:31N 51°57' E 002°22'714.7
2018-Jul-20 04:01N 51°60' E 002°33'714.6
2018-Jul-20 03:31N 52°02' E 002°44'714.7
2018-Jul-20 03:01N 52°02' E 002°56'714.8
2018-Jul-20 02:31N 52°03' E 003°08'714.8
2018-Jul-20 02:01N 52°03' E 003°20'714.8
2018-Jul-20 01:31N 52°03' E 003°32'815.4
2018-Jul-20 01:00N 52°03' E 003°45'611.6
2018-Jul-20 00:30N 52°02' E 003°54'4 8.5
2018-Jul-20 00:00N 52°00' E 004°00'4 7.7
2018-Jul-19 23:30N 51°58' E 004°05'1 2.1
2018-Jul-19 23:00N 51°58' E 004°03'0 0.0
2018-Jul-19 22:30N 51°58' E 004°03'0 0.0
2018-Jul-19 22:00N 51°58' E 004°03'0 0.0
2018-Jul-19 21:30N 51°58' E 004°03'0 0.0
2018-Jul-19 21:00N 51°58' E 004°03'0 0.0
2018-Jul-19 20:30N 51°58' E 004°03'0 0.0
2018-Jul-19 20:00N 51°58' E 004°03'0 0.0
2018-Jul-19 19:30N 51°58' E 004°03'0 0.0
2018-Jul-19 19:00N 51°58' E 004°03'0 0.0
2018-Jul-19 18:30N 51°58' E 004°03'0 0.0
2018-Jul-19 18:00N 51°58' E 004°03'0 0.0
2018-Jul-19 17:30N 51°58' E 004°03'0 0.0
2018-Jul-19 17:00N 51°58' E 004°03'0 0.0
2018-Jul-19 16:30N 51°58' E 004°03'0 0.0
2018-Jul-19 16:00N 51°58' E 004°03'0 0.0
2018-Jul-19 15:30N 51°58' E 004°03'0 0.0
2018-Jul-19 15:00N 51°58' E 004°03'0 0.0
2018-Jul-19 14:00N 51°58' E 004°03'0 0.0
2018-Jul-19 13:30N 51°58' E 004°03'0 0.0
2018-Jul-19 13:00N 51°58' E 004°03'0 0.0
2018-Jul-19 12:30N 51°58' E 004°03'0 0.0
2018-Jul-19 12:00N 51°58' E 004°03'0 0.0
2018-Jul-19 11:30N 51°58' E 004°03'0 0.0
2018-Jul-19 11:00N 51°58' E 004°03'0 0.0
2018-Jul-19 10:30N 51°58' E 004°03'0 0.0
2018-Jul-19 10:00N 51°58' E 004°03'0 0.0
2018-Jul-19 09:30N 51°58' E 004°03'0 0.0
2018-Jul-19 09:00N 51°58' E 004°03'0 0.0
2018-Jul-19 08:30N 51°58' E 004°03'0 0.0
2018-Jul-19 08:00N 51°58' E 004°03'0 0.0
2018-Jul-19 07:30N 51°58' E 004°03'0 0.0
2018-Jul-19 07:00N 51°58' E 004°03'0 0.0
2018-Jul-19 06:30N 51°58' E 004°03'0 0.0
2018-Jul-19 06:00N 51°58' E 004°03'0 0.0
2018-Jul-19 05:30N 51°58' E 004°03'1 1.5
2018-Jul-19 05:00N 51°58' E 004°04'2 4.1
2018-Jul-19 04:30N 51°59' E 004°02'612.0
2018-Jul-19 04:00N 52°00' E 003°53'5 9.6
2018-Jul-19 03:30N 51°60' E 003°45'4 8.8
2018-Jul-19 03:00N 51°58' E 003°39'612.5
2018-Jul-19 02:30N 51°56' E 003°29'816.6
2018-Jul-19 02:00N 51°54' E 003°16'815.4
2018-Jul-19 01:30N 51°53' E 003°04'2 3.8
2018-Jul-19 01:00N 51°54' E 003°01'1 1.8
2018-Jul-19 00:30N 51°54' E 003°02'1 1.8
2018-Jul-19 00:00N 51°55' E 003°03'1 1.6
2018-Jul-18 23:30N 51°56' E 003°03'1 1.1
2018-Jul-18 23:00N 51°56' E 003°04'0 0.4
2018-Jul-18 22:30N 51°56' E 003°04'0 0.3
2018-Jul-18 22:00N 51°56' E 003°04'6 5.9
2018-Jul-18 21:00N 51°54' E 002°55'917.2
2018-Jul-18 20:30N 51°50' E 002°42'1122.2
2018-Jul-18 20:00N 51°43' E 002°29'1121.9
2018-Jul-18 19:30N 51°33' E 002°19'1122.6
2018-Jul-18 19:00N 51°23' E 002°11'1122.7
2018-Jul-18 18:30N 51°14' E 002°02'1223.1
2018-Jul-18 18:01N 51°07' E 001°47'1223.9
2018-Jul-18 17:31N 50°59' E 001°33'1223.2
2018-Jul-18 17:01N 50°49' E 001°24'1122.2
2018-Jul-18 16:31N 50°39' E 001°16'1122.6
2018-Jul-18 16:01N 50°32' E 001°03'1121.8
2018-Jul-18 15:31N 50°27' E 000°47'1121.9
2018-Jul-18 15:01N 50°24' E 000°30'1122.4
2018-Jul-18 14:30N 50°22' E 000°13'2323.2
2018-Jul-18 13:30N 50°15' W 000°22'1223.8
2018-Jul-18 13:01N 50°10' W 000°38'1224.1
2018-Jul-18 12:31N 50°03' W 000°54'1224.3
2018-Jul-18 12:01N 49°56' W 001°09'1224.7
2018-Jul-18 11:30N 49°50' W 001°26'1111.5
2018-Jul-18 10:31N 49°46' W 001°42'3 6.0
2018-Jul-18 10:00N 49°46' W 001°47'1119.9
2018-Jul-18 09:27N 49°49' W 002°03'1121.6
2018-Jul-18 08:55N 49°53' W 002°20'1022.1
2018-Jul-18 08:28N 49°50' W 002°35'1022.0
2018-Jul-18 08:00N 49°48' W 002°51'1121.9
2018-Jul-18 07:30N 49°45' W 003°07'1221.6
2018-Jul-18 06:58N 49°40' W 003°23'1021.6
2018-Jul-18 06:30N 49°35' W 003°36'4321.5
2018-Jul-18 04:31N 49°13' W 004°32'121.4
2018-Jul-18 04:29N 49°12' W 004°33'1021.1
2018-Jul-18 04:00N 49°07' W 004°46'1120.8
2018-Jul-18 03:28N 49°01' W 005°01'920.5
2018-Jul-18 03:01N 48°56' W 005°13'1020.3
2018-Jul-18 02:30N 48°51' W 005°26'1420.1
2018-Jul-18 01:48N 48°41' W 005°41'2820.4
2018-Jul-18 00:25N 48°15' W 005°59'1920.1
2018-Jul-17 23:27N 47°58' W 006°13'1120.7
2018-Jul-17 22:54N 47°48' W 006°21'820.5
2018-Jul-17 22:30N 47°41' W 006°27'1020.4
2018-Jul-17 22:01N 47°32' W 006°34'1121.6
2018-Jul-17 21:30N 47°22' W 006°42'50020.8
2018-Jul-16 21:30N 39°21' W 009°52'1021.1
2018-Jul-16 21:01N 39°11' W 009°52'1121.1
2018-Jul-16 20:31N 39°00' W 009°51'1020.8
2018-Jul-16 20:01N 38°50' W 009°50'1121.3
2018-Jul-16 19:30N 38°39' W 009°50'1121.8
2018-Jul-16 19:01N 38°29' W 009°47'1121.6
2018-Jul-16 18:31N 38°18' W 009°44'1121.4
2018-Jul-16 18:01N 38°08' W 009°40'1121.4
2018-Jul-16 17:31N 37°58' W 009°36'1121.1
2018-Jul-16 17:00N 37°47' W 009°33'1121.4
2018-Jul-16 16:30N 37°37' W 009°30'1121.2
2018-Jul-16 16:01N 37°27' W 009°27'1121.0
2018-Jul-16 15:31N 37°16' W 009°25'1121.6
2018-Jul-16 15:01N 37°06' W 009°23'2520.3
2018-Jul-16 13:48N 36°45' W 009°07'1121.6
2018-Jul-16 13:17N 36°42' W 008°54'621.4
2018-Jul-16 13:00N 36°40' W 008°46'1121.3
2018-Jul-16 12:30N 36°37' W 008°34'13821.5
2018-Jul-16 06:05N 35°56' W 005°50'219.3
2018-Jul-16 06:00N 35°56' W 005°48'915.5
2018-Jul-16 05:24N 35°57' W 005°37'614.4
2018-Jul-16 05:00N 35°59' W 005°30'815.2
2018-Jul-16 04:30N 36°04' W 005°23'510.5
2018-Jul-16 04:00N 36°09' W 005°25'1 1.8
2018-Jul-16 03:30N 36°09' W 005°26'0 0.0
2018-Jul-16 03:00N 36°09' W 005°26'0 0.0
2018-Jul-16 02:30N 36°09' W 005°26'0 0.0
2018-Jul-16 02:00N 36°09' W 005°26'0 0.0
2018-Jul-16 01:30N 36°09' W 005°26'0 0.0
2018-Jul-16 01:00N 36°09' W 005°26'0 0.0
2018-Jul-16 00:30N 36°09' W 005°26'0 0.0
2018-Jul-16 00:00N 36°09' W 005°26'0 0.0
2018-Jul-15 23:30N 36°09' W 005°26'0 0.0
2018-Jul-15 23:00N 36°09' W 005°26'0 0.0
2018-Jul-15 22:30N 36°09' W 005°26'0 0.0
2018-Jul-15 22:00N 36°09' W 005°26'0 0.0
2018-Jul-15 21:30N 36°09' W 005°26'0 0.0
2018-Jul-15 21:00N 36°09' W 005°26'0 0.0
2018-Jul-15 20:30N 36°09' W 005°26'0 0.0
2018-Jul-15 20:00N 36°09' W 005°26'0 0.0
2018-Jul-15 19:30N 36°09' W 005°26'0 0.0
2018-Jul-15 19:00N 36°09' W 005°26'0 0.0
2018-Jul-15 18:30N 36°09' W 005°26'0 0.0
2018-Jul-15 18:00N 36°09' W 005°26'0 0.0
2018-Jul-15 17:30N 36°09' W 005°26'0 0.0
2018-Jul-15 17:00N 36°09' W 005°26'0 0.0
2018-Jul-15 16:30N 36°09' W 005°26'0 0.0
2018-Jul-15 15:57N 36°09' W 005°26'0 0.0
2018-Jul-15 15:30N 36°09' W 005°26'0 0.0
2018-Jul-15 15:00N 36°09' W 005°26'0 0.0
2018-Jul-15 14:24N 36°09' W 005°26'0 0.0
2018-Jul-15 14:00N 36°09' W 005°26'0 0.0
2018-Jul-15 13:30N 36°09' W 005°26'0 0.0
2018-Jul-15 13:00N 36°09' W 005°26'0 0.0
2018-Jul-15 12:30N 36°09' W 005°26'0 0.0
2018-Jul-15 12:00N 36°09' W 005°26'0 0.0
2018-Jul-15 11:30N 36°09' W 005°26'0 0.0
2018-Jul-15 11:00N 36°09' W 005°26'0 0.0
2018-Jul-15 10:30N 36°09' W 005°26'0 0.0
2018-Jul-15 10:00N 36°09' W 005°26'0 0.0
2018-Jul-15 09:30N 36°09' W 005°26'0 0.1
2018-Jul-15 09:00N 36°09' W 005°26'0 0.1
2018-Jul-15 08:30N 36°09' W 005°26'1 2.2
2018-Jul-15 08:00N 36°09' W 005°25'2 4.9
2018-Jul-15 07:30N 36°07' W 005°23'3 6.6
2018-Jul-15 07:00N 36°05' W 005°20'2 4.2
2018-Jul-15 06:30N 36°03' W 005°20'5 9.2
2018-Jul-15 06:00N 35°59' W 005°24'612.3
2018-Jul-15 05:30N 35°57' W 005°31'5 9.3
2018-Jul-15 05:00N 35°55' W 005°36'714.4
2018-Jul-15 04:30N 35°54' W 005°45'815.0
2018-Jul-15 03:58N 35°53' W 005°55'52117.9
2018-Jul-13 22:49N 29°15' W 012°34'721.6
2018-Jul-13 22:30N 29°09' W 012°38'1321.5
2018-Jul-13 21:54N 28°58' W 012°46'1121.3
2018-Jul-13 21:21N 28°49' W 012°53'921.5
2018-Jul-13 20:55N 28°41' W 012°59'921.6
2018-Jul-13 20:29N 28°33' W 013°04'1121.5
2018-Jul-13 20:00N 28°24' W 013°11'1121.9
2018-Jul-13 19:30N 28°15' W 013°17'1121.2
2018-Jul-13 19:00N 28°06' W 013°25'1120.8
2018-Jul-13 18:29N 27°58' W 013°32'1020.8
2018-Jul-13 18:00N 27°50' W 013°39'1121.1
2018-Jul-13 17:28N 27°41' W 013°47'2421.6
2018-Jul-13 16:23N 27°22' W 014°03'  

Dump ship's entire track history